TIPO2: N. Fork Red River nr Tipton, OK

Data processed at Tue May 21 2019 23:50


All information presented herein is the property of the government of the United States of America and may be revised or deleted at any time without prior notice.
Dissemination of this information without the expressed written consent of the Public Affairs Office, Tulsa District U.S. Army Corps of Engineers is strictly prohibited.
These data are gathered electronically and, as presented, have not undergone any form of quality control. These data are not guaranteed to be valid or correct.
Go to home page.
Go to station list.
Go to home page.

Upstream stations:

Downstream station:
Previous Day
Next Day
Current Day
    
SHEF ID:       TIPO2     North Fork Red River near Tipton
STATION TYPE:  
Regulating: Stage =    14.00, Flow =     9148

                STAGE  RIV-FLOW   VOLTAGE  BAT-LOAD
                   ft       cfs      volt      volt
              Ccp-Rev   Ccp-Rev   Ccp-Rev   Ccp-Rev
(US/Central)
05/21 00:00      9.90      2230     12.57     12.41
05/21 01:00      9.97      2289     12.57     12.41
05/21 02:00     10.03      2339     12.57     12.41
05/21 03:00     10.01      2322     12.57     12.41
05/21 04:00     10.01      2322     12.49     12.41
05/21 05:00     10.07      2374     12.49     12.33
05/21 06:00     10.21      2495     12.49     12.33
05/21 07:00     10.32      2593     12.49     12.33
05/21 08:00     10.29      2567     12.57     12.41
05/21 09:00     10.30      2575     13.13     12.73
05/21 10:00     10.22      2504     13.05     12.89
05/21 11:00     10.14      2434     13.05     12.89
05/21 12:00     10.12      2417     13.37     12.97
05/21 13:00     10.10      2399     13.53     13.29
05/21 14:00      9.99      2305     13.53     13.29
05/21 15:00      9.94      2263     13.44     13.29
05/21 16:00      9.81      2156     13.68     13.21
05/21 17:00      9.84      2181     13.44     13.13
05/21 18:00      9.63      2012     13.68     13.05
05/21 19:00      9.59      1981     14.00     13.05
05/21 20:00      9.57      1965     12.97     12.97
05/21 21:00      9.53      1934     12.73     12.65
05/21 22:00      9.50      1911     12.65     12.49
05/21 23:00      9.55      1950     12.57     12.49